METAR Data
IDs: Format: Raw Decoded Include TAF

Data at: 1020 UTC 26 Sep 2018

KSNS 260953Z AUTO 17003KT 4SM BR OVC004 12/11 A2998 RMK AO2 SLP159 T01170111
KSNS 260853Z AUTO 13004KT 3SM BR OVC004 12/12 A2998 RMK AO2 SLP160 T01220117 55000
KSNS 260805Z AUTO 14004KT 4SM BR OVC004 12/12 A2997 RMK AO2 T01220117
KSNS 260753Z AUTO 13004KT 4SM BR OVC005 12/12 A2998 RMK AO2 SLP160 T01220117 402000111
KSNS 260741Z AUTO 13005KT 4SM BR OVC005 12/12 A2998 RMK AO2 T01220117
KSNS 260653Z AUTO 33003KT 4SM BR OVC004 12/12 A2998 RMK AO2 SLP160 T01220117
KSNS 260638Z AUTO 30005KT 5SM BR OVC004 12/12 A2998 RMK AO2 T01220117
KSNS 260553Z AUTO 32004KT 5SM BR OVC005 13/12 A2998 RMK AO2 SLP160 T01280117 10172 20128 51011
KSNS 260453Z AUTO 31007KT 5SM BR OVC005 13/12 A2997 RMK AO2 SLP158 T01280117
KSNS 260353Z AUTO 32008KT 6SM BR OVC005 13/12 A2996 RMK AO2 SLP154 T01280117
KSNS 260303Z AUTO 33009KT 6SM BR BKN005 13/12 A2995 RMK AO2 T01280117
KSNS 260253Z AUTO 32010KT 6SM BR SCT005 13/12 A2994 RMK AO2 SLP149 T01280117 51006
KSNS 260153Z 31009KT 6SM HZ CLR 14/12 A2993 RMK AO2 SLP144 T01440117
KSNS 260053Z 32010KT 6SM HZ CLR 16/12 A2993 RMK AO2 SLP143 T01610117
KSNS 252353Z 34012KT 6SM HZ CLR 17/12 A2993 RMK AO2 SLP143 T01670117 10200 20167 56010
KSNS 252253Z 33011KT 6SM HZ CLR 18/12 A2993 RMK AO2 SLP145 T01780122
KSNS 252153Z 32011KT 6SM HZ CLR 18/12 A2994 RMK AO2 SLP148 T01780117
KSNS 252053Z 32013KT 7SM CLR 18/11 A2996 RMK AO2 SLP154 T01780111 56002
KSNS 251953Z 31011KT 7SM CLR 18/11 A2996 RMK AO2 SLP154 T01780111
KSNS 251853Z 31009KT 7SM CLR 19/11 A2996 RMK AO2 SLP153 T01890111
KSNS 251753Z 00000KT 7SM CLR 17/11 A2996 RMK AO2 SLP156 T01670111 10167 20111 51009
KSNS 251653Z VRB03KT 6SM HZ CLR 14/11 A2996 RMK AO2 SLP154 T01390106
KSNS 251634Z 13004KT 6SM BR FEW007 13/11 A2996 RMK AO2 T01280106
KSNS 251553Z 13007KT 5SM BR OVC006 12/11 A2995 RMK AO2 SLP150 T01220106
KSNS 251453Z 15010KT 3SM BR OVC005 12/11 A2994 RMK AO2 SLP146 T01170106 52003
KSNS 251449Z 13006KT 4SM BR OVC005 12/11 A2994 RMK AO2
KSNS 251418Z 14005KT 3SM BR OVC004 12/11 A2993 RMK AO2 T01170111
KSNS 251353Z 13004KT 4SM BR OVC005 12/11 A2993 RMK AO2 SLP143 T01170106
KSNS 251349Z 14005KT 4SM BR OVC005 12/11 A2993 RMK AO2
KSNS 251331Z 15004KT 4SM BR OVC004 12/11 A2993 RMK AO2 T01170111
KSNS 251253Z 16004KT 4SM BR OVC005 12/11 A2992 RMK AO2 SLP141 T01170106
KSNS 251153Z AUTO 11004KT 4SM BR OVC005 12/11 A2991 RMK AO2 SLP136 T01170111 10139 20117 58004
KSNS 251053Z AUTO 00000KT 5SM BR OVC006 12/12 A2991 RMK AO2 SLP138 T01220117
KSNS 250953Z AUTO VRB03KT 6SM BR OVC007 13/11 A2992 RMK AO2 SLP139 T01330111
KSNS 250853Z AUTO 00000KT 6SM BR OVC007 13/12 A2992 RMK AO2 SLP140 T01280117 51003
KSNS 250753Z AUTO 35004KT 6SM BR OVC007 13/12 A2992 RMK AO2 SLP139 T01330117 402000094
KSNS 250653Z AUTO 33003KT 5SM BR OVC007 13/12 A2992 RMK AO2 SLP141 T01330122
KSNS 250553Z AUTO 32009KT 5SM BR BKN009 14/12 A2991 RMK AO2 SLP137 T01390122 10167 20133 51012
KSNS 250546Z AUTO 34007KT 5SM BR BKN009 14/12 A2991 RMK AO2 T01390122
KSNS 250537Z AUTO 34005KT 5SM BR SCT009 14/12 A2991 RMK AO2 T01390122
KSNS 250453Z AUTO 35005KT 5SM BR CLR 13/12 A2991 RMK AO2 SLP136 T01330117
KSNS 250413Z AUTO 35006KT 6SM BR FEW009 14/12 A2990 RMK AO2 T01390117
KSNS 250353Z AUTO 34006KT 6SM BR CLR 14/12 A2989 RMK AO2 SLP131 T01390117
KSNS 250253Z AUTO 34007KT 6SM BR CLR 14/12 A2988 RMK AO2 SLP125 T01390117 53004
KSNS 250153Z 33009KT 5SM HZ CLR 15/12 A2986 RMK AO2 SLP121 T01500117
KSNS 250053Z 34012KT 6SM HZ CLR 16/11 A2986 RMK AO2 SLP120 T01610111
KSNS 242353Z 33011KT 6SM HZ CLR 17/11 A2986 RMK AO2 SLP121 T01670111 10200 20161 55004
KSNS 242253Z 32013KT 6SM HZ CLR 17/11 A2986 RMK AO2 SLP121 T01720111